This is the latest recevied weather packets stored in our database for station/object OE3XOC-11. If no packets are shown the sender has not sent any weather packets the latest 10 day(s).
| Time | Temp. | Humidity | Pressure | Rain* | Wind** | Luminosity | Snow |
|---|---|---|---|---|---|---|---|
| 1777945398 | 20° C | 36% | 954.9 hPa | - | - | - | - |
| 1777945098 | 19.44° C | 38% | 954.9 hPa | - | - | - | - |
| 1777944798 | 20° C | 36% | 954.9 hPa | - | - | - | - |
| 1777944498 | 20° C | 37% | 954.9 hPa | - | - | - | - |
| 1777944198 | 20.56° C | 35% | 954.9 hPa | - | - | - | - |
| 1777943898 | 21.11° C | 33% | 954.9 hPa | - | - | - | - |
| 1777943598 | 21.11° C | 34% | 955 hPa | - | - | - | - |
| 1777943298 | 20.56° C | 34% | 955 hPa | - | - | - | - |
| 1777942998 | 21.11° C | 34% | 955.1 hPa | - | - | - | - |
| 1777942698 | 20.56° C | 35% | 955 hPa | - | - | - | - |
| 1777942398 | 19.44° C | 37% | 955.1 hPa | - | - | - | - |
| 1777942098 | 19.44° C | 37% | 955.1 hPa | - | - | - | - |
| 1777941798 | 20° C | 37% | 955.2 hPa | - | - | - | - |
| 1777941498 | 21.11° C | 34% | 955.1 hPa | - | - | - | - |
| 1777941198 | 22.22° C | 31% | 955.1 hPa | - | - | - | - |
| 1777940898 | 21.67° C | 32% | 955.1 hPa | - | - | - | - |
| 1777940598 | 21.67° C | 33% | 955.1 hPa | - | - | - | - |
| 1777940298 | 21.67° C | 33% | 955.1 hPa | - | - | - | - |
| 1777939998 | 21.67° C | 33% | 955.2 hPa | - | - | - | - |
| 1777939698 | 21.67° C | 33% | 955.2 hPa | - | - | - | - |
| 1777939398 | 21.67° C | 33% | 955.1 hPa | - | - | - | - |
| 1777939098 | 21.67° C | 33% | 955.1 hPa | - | - | - | - |
| 1777938798 | 21.67° C | 33% | 955.2 hPa | - | - | - | - |
| 1777938498 | 21.67° C | 32% | 955.2 hPa | - | - | - | - |
| 1777938198 | 21.67° C | 32% | 955.3 hPa | - | - | - | - |
* Rain since midnight (hover to see other rain measurements)
** Current wind speed in m/s (hover to see current wind gust speed)